Portada
METAR-TAF:

METAR-TAF

Aeropuertos :

Caracas, Venezuela

Aeropuerto Internacional de Maiquetía Simón Bolívar

latitud: 10-36N, longitud: 066-59W, altitud: 43 m

Observación

El informe se hizo hace 29 minutos, a las 00:00 UTC
Viento 3 kt del noreste
Temperatura 28°C
Humedad 70%
Presión 1010 hPa
Visibilidad 10 km o más
Cielo nuboso a una altura de 1600 ft

METAR: SVMI 010000Z 05003KT 9999 BKN016 28/22 Q1010

Hora: 20:29 (00:29 UTC)

Pronóstico

El informe se hizo hace 2 horas y 29 minutos, a las 22:00 UTC
Pronóstico válido del 01 a las 00 UTC al 02 a las 00 UTC
Viento 5 kt del noreste
Visibilidad 10 km o más
Nubes dispersas a una altura de 1600 ft
Evolucionando progresivamente
del 01 a las 02 UTC al 01 a las 08 UTC
Viento kt del norte
Escasas nubes a una altura de 1600 ft

TAF: SVMI 302200Z 0100/0200 05005KT 9999 SCT016 TX33/19Z TN25/08Z BECMG 0102/0108 00000KT FEW016

Observaciones y pronósticos meteorológicos de más de 4000 aeropuertos (mensajes METAR y TAF).

Los puntos amarillos y rojos representan las estaciones disponibles.

Ponga el ratón en el punto deseado para ver el nombre de la estación.

Haga clic para ver las observaciones y los pronósticos meteorológicos.

Para cambiar el mapa : haga clic en los botones verdes con una cruz de color negro para hacer un zoom, en el botón verde con un guión para alejar o en las flechas verdes para mapas adyacentes.


METAR-TAF: